This is the latest recevied weather packets stored in our database for station/object N9MXT-13. If no packets are shown the sender has not sent any weather packets the latest 10 day(s).
| Time | Temp. | Humidity | Pressure | Rain* | Wind** | Luminosity | Snow |
|---|---|---|---|---|---|---|---|
| 1777416901 | 17.78° C | 55% | 1012.3 hPa | 0 mm | - | - | - |
| 1777414501 | 17.78° C | 59% | 1012.6 hPa | 0 mm | - | - | - |
| 1777410901 | 17.78° C | 62% | 1013 hPa | 0 mm | - | - | - |
| 1777407601 | 16.67° C | 63% | 1013.5 hPa | 0 mm | - | - | - |
| 1777406100 | 16.11° C | 63% | 1013.6 hPa | 0 mm | - | - | - |
| 1777404001 | 15.56° C | 65% | 1014.1 hPa | 0 mm | - | - | - |
| 1777402500 | 15° C | 68% | 1014.2 hPa | 0 mm | - | - | - |
| 1777400701 | 14.44° C | 68% | 1014.7 hPa | 0 mm | - | - | - |
| 1777399800 | 14.44° C | 69% | 1014.7 hPa | 0 mm | - | - | - |
| 1777397401 | 13.33° C | 70% | 1014.2 hPa | 0 mm | - | - | - |
| 1777395299 | 13.89° C | 70% | 1014.1 hPa | 0 mm | - | - | - |
| 1777394699 | 13.33° C | 71% | 1014 hPa | 0 mm | - | - | - |
| 1777392600 | 12.22° C | 73% | 1014 hPa | 0 mm | - | - | - |
| 1777391699 | 12.22° C | 74% | 1013.7 hPa | 0 mm | - | - | - |
| 1777391100 | 11.67° C | 75% | 1013.8 hPa | 0 mm | - | - | - |
| 1777389900 | 11.67° C | 75% | 1013.3 hPa | 0 mm | - | - | - |
| 1777388700 | 11.11° C | 75% | 1013 hPa | 0 mm | - | - | - |
| 1777387501 | 10.56° C | 77% | 1012.9 hPa | 0 mm | - | - | - |
| 1777384499 | 10.56° C | 78% | 1012.5 hPa | 0 mm | - | - | - |
| 1777380599 | 10° C | 79% | 1011 hPa | 0 mm | - | - | - |
| 1777376699 | 10° C | 82% | 1009 hPa | 0 mm | - | - | - |
| 1777367699 | 10.56° C | 84% | 1006.8 hPa | 0 mm | - | - | - |
| 1777360799 | 12.78° C | 85% | 1005 hPa | 0 mm | - | - | - |
| 1777359900 | 12.78° C | 86% | 1004.7 hPa | 0 mm | - | - | - |
| 1777359601 | 12.78° C | 86% | 1004.7 hPa | 0 mm | - | - | - |
* Rain latest hour (hover to see other rain measurements)
** Current wind speed in m/s (hover to see current wind gust speed)